Time;durP1;ratioP1;P1;durP2;ratioP2;P2;SDS_P1;SDS_P2;PMS_P1;PMS_P2;Temp;Humidity;BMP_temperature;BMP_pressure;BME280_temperature;BME280_humidity;BME280_pressure;Samples;Min_cycle;Max_cycle;Signal;HPM_P1;HPM_P2
2023/06/09 00:02:04;;;;;;;17.90;16.10;;;16.10;99.90;;;;;;4992004;28;20180;-65
2023/06/09 00:04:32;;;;;;;17.67;15.87;;;16.10;99.90;;;;;;4992177;28;20172;-65
2023/06/09 00:06:58;;;;;;;19.07;16.93;;;16.10;99.90;;;;;;4992028;28;20188;-65
2023/06/09 00:09:24;;;;;;;17.87;15.80;;;16.10;99.90;;;;;;4991712;28;20180;-65
2023/06/09 00:11:50;;;;;;;18.43;16.53;;;16.10;99.90;;;;;;4992079;28;20173;-65
2023/06/09 00:14:16;;;;;;;17.33;15.63;;;16.10;99.90;;;;;;4991990;28;20529;-65
2023/06/09 00:16:45;;;;;;;16.73;15.13;;;16.10;99.90;;;;;;4991459;28;20212;-65
2023/06/09 00:19:11;;;;;;;17.60;15.77;;;16.10;99.90;;;;;;4991737;28;20196;-65
2023/06/09 00:21:37;;;;;;;17.97;15.10;;;16.10;99.90;;;;;;4991717;28;20177;-65
2023/06/09 00:24:04;;;;;;;16.93;15.23;;;16.10;99.90;;;;;;4992029;28;20196;-65
2023/06/09 00:26:29;;;;;;;17.37;15.67;;;16.10;99.90;;;;;;4991580;28;20218;-65
2023/06/09 00:28:55;;;;;;;17.30;15.30;;;16.10;99.90;;;;;;4991858;28;20698;-65
2023/06/09 00:31:21;;;;;;;17.97;15.07;;;16.20;99.90;;;;;;4991521;28;20188;-65
2023/06/09 00:33:46;;;;;;;16.10;14.50;;;16.20;99.90;;;;;;4991976;28;20173;-65
2023/06/09 00:36:12;;;;;;;17.57;15.27;;;16.10;99.90;;;;;;4991684;28;20283;-65
2023/06/09 00:38:37;;;;;;;16.03;14.47;;;16.00;99.90;;;;;;4991834;28;20275;-65
2023/06/09 00:41:03;;;;;;;17.57;15.70;;;16.10;99.90;;;;;;4991233;28;20196;-65
2023/06/09 00:43:28;;;;;;;18.10;15.77;;;16.00;99.90;;;;;;4991694;28;20188;-65
2023/06/09 00:45:54;;;;;;;19.43;16.60;;;15.90;99.90;;;;;;4990352;28;20228;-65
2023/06/09 00:48:20;;;;;;;22.60;17.30;;;15.80;99.90;;;;;;4991748;28;20192;-65
2023/06/09 00:50:47;;;;;;;21.40;17.13;;;15.80;99.90;;;;;;4991396;28;20677;-65
2023/06/09 00:53:13;;;;;;;20.43;18.30;;;15.80;99.90;;;;;;4991764;28;20169;-65
2023/06/09 00:55:40;;;;;;;19.97;17.70;;;15.70;99.90;;;;;;4991452;28;20239;-65
2023/06/09 00:58:07;;;;;;;19.47;17.50;;;15.60;99.90;;;;;;4972238;28;20173;-65
2023/06/09 01:00:35;;;;;;;19.67;17.60;;;15.60;99.90;;;;;;4971838;28;20201;-65
2023/06/09 01:03:02;;;;;;;19.80;17.80;;;15.60;99.90;;;;;;4972097;28;20174;-65
2023/06/09 01:05:39;;;;;;;18.73;16.67;;;15.60;99.90;;;;;;4972095;28;20415;-65
2023/06/09 01:08:36;;;;;;;19.30;17.30;;;15.60;99.90;;;;;;4972299;28;20170;-65
2023/06/09 01:11:17;;;;;;;20.27;18.27;;;15.60;99.90;;;;;;4976768;28;20176;-65
2023/06/09 01:13:50;;;;;;;23.10;19.67;;;15.50;99.90;;;;;;4991434;28;20172;-65
2023/06/09 01:16:23;;;;;;;24.57;20.03;;;15.50;99.90;;;;;;4991517;28;20193;-65
2023/06/09 01:18:51;;;;;;;23.40;19.77;;;15.30;99.90;;;;;;4991321;28;20512;-65
2023/06/09 01:21:32;;;;;;;25.23;19.43;;;15.30;99.90;;;;;;4991121;28;20180;-65
2023/06/09 01:24:10;;;;;;;28.30;20.43;;;15.30;99.90;;;;;;4991508;28;20228;-65
2023/06/09 01:26:38;;;;;;;22.00;19.63;;;15.20;99.90;;;;;;4991638;28;20219;-65
2023/06/09 01:29:05;;;;;;;24.00;21.07;;;15.10;99.90;;;;;;4992481;28;20181;-65
2023/06/09 01:31:32;;;;;;;26.23;20.03;;;15.10;99.90;;;;;;4994706;28;20631;-65
2023/06/09 01:33:59;;;;;;;23.60;19.93;;;15.10;99.90;;;;;;4994873;28;20304;-65
2023/06/09 01:36:26;;;;;;;25.57;21.20;;;15.00;99.90;;;;;;4994408;28;20220;-65
2023/06/09 01:38:51;;;;;;;23.37;20.60;;;15.00;99.90;;;;;;4994486;28;20185;-64
2023/06/09 01:41:17;;;;;;;23.40;20.33;;;15.00;99.90;;;;;;4994500;28;20169;-65
2023/06/09 01:43:42;;;;;;;27.10;21.10;;;15.00;99.90;;;;;;4994920;28;20571;-65
2023/06/09 01:46:08;;;;;;;28.47;22.53;;;14.90;99.90;;;;;;4994721;28;20216;-65
2023/06/09 01:48:55;;;;;;;25.90;21.30;;;14.90;99.90;;;;;;4994608;28;20200;-65
2023/06/09 01:51:45;;;;;;;30.80;20.83;;;14.90;99.90;;;;;;4994501;28;20276;-65
2023/06/09 01:54:15;;;;;;;25.43;21.33;;;14.80;99.90;;;;;;4994283;28;20229;-65
2023/06/09 01:56:58;;;;;;;27.23;22.07;;;14.80;99.90;;;;;;4994534;28;20193;-65
2023/06/09 01:59:30;;;;;;;22.30;20.00;;;14.70;99.90;;;;;;4993863;28;20247;-65
2023/06/09 02:01:58;;;;;;;28.43;22.30;;;14.70;99.90;;;;;;4994526;28;20208;-65
2023/06/09 02:04:27;;;;;;;26.70;22.77;;;14.60;99.90;;;;;;4994239;28;20582;-65
2023/06/09 02:06:53;;;;;;;29.20;22.30;;;14.60;99.90;;;;;;4994104;28;20595;-65
2023/06/09 02:09:20;;;;;;;28.50;23.00;;;14.60;99.90;;;;;;4994011;28;20232;-65
2023/06/09 02:11:52;;;;;;;31.97;24.63;;;14.60;99.90;;;;;;4994279;28;20204;-65
2023/06/09 02:14:18;;;;;;;30.63;23.97;;;14.60;99.90;;;;;;4994233;28;20264;-65
2023/06/09 02:16:47;;;;;;;27.20;23.80;;;14.60;99.90;;;;;;4992861;28;20201;-65
2023/06/09 02:19:13;;;;;;;29.57;23.93;;;14.60;99.90;;;;;;4994207;28;20192;-71
2023/06/09 02:21:38;;;;;;;30.80;24.60;;;14.60;99.90;;;;;;4994963;28;20551;-69
2023/06/09 02:24:05;;;;;;;29.87;23.80;;;14.60;99.90;;;;;;4995344;28;20260;-71
2023/06/09 02:26:31;;;;;;;29.07;23.03;;;14.60;99.90;;;;;;4994637;28;20212;-71
2023/06/09 02:28:57;;;;;;;27.03;23.80;;;14.60;99.90;;;;;;4994898;28;20173;-72
2023/06/09 02:31:23;;;;;;;29.03;23.03;;;14.60;99.90;;;;;;4994520;28;20180;-72
2023/06/09 02:33:48;;;;;;;26.00;22.77;;;14.60;99.90;;;;;;4994797;28;20177;-69
2023/06/09 02:36:15;;;;;;;27.83;23.23;;;14.60;99.90;;;;;;4994743;28;20639;-71
2023/06/09 02:38:41;;;;;;;27.10;22.63;;;14.60;99.90;;;;;;4995227;28;20232;-69
2023/06/09 02:41:06;;;;;;;30.40;22.40;;;14.50;99.90;;;;;;4993901;28;20864;-71
2023/06/09 02:43:32;;;;;;;30.13;23.20;;;14.50;99.90;;;;;;4994229;28;20201;-70
2023/06/09 02:45:58;;;;;;;29.33;23.23;;;14.50;99.90;;;;;;4994717;28;20192;-69
2023/06/09 02:48:23;;;;;;;27.03;22.30;;;14.50;99.90;;;;;;4994808;28;20252;-70
2023/06/09 02:50:49;;;;;;;26.93;22.93;;;14.50;99.90;;;;;;4993188;28;20547;-70
2023/06/09 02:53:14;;;;;;;26.33;22.07;;;14.40;99.90;;;;;;4994436;28;20177;-71
2023/06/09 02:55:44;;;;;;;27.93;23.47;;;14.40;99.90;;;;;;4993873;28;20188;-73
2023/06/09 02:58:14;;;;;;;30.07;23.07;;;14.40;99.90;;;;;;4994123;28;20670;-69
2023/06/09 03:00:44;;;;;;;28.87;22.27;;;14.40;99.90;;;;;;4993898;28;20204;-73
2023/06/09 03:03:12;;;;;;;29.87;24.33;;;14.40;99.90;;;;;;4993969;28;20535;-70
2023/06/09 03:05:40;;;;;;;29.67;24.77;;;14.30;99.90;;;;;;4992730;28;20662;-68
2023/06/09 03:08:09;;;;;;;32.07;24.97;;;14.30;99.90;;;;;;4994512;28;20251;-69
2023/06/09 03:10:35;;;;;;;30.70;24.83;;;14.20;99.90;;;;;;4993160;28;20195;-73
2023/06/09 03:13:01;;;;;;;28.87;24.70;;;14.20;99.90;;;;;;4993133;28;20207;-70
2023/06/09 03:15:28;;;;;;;29.43;23.63;;;14.20;99.90;;;;;;4993197;28;20176;-68
2023/06/09 03:17:54;;;;;;;29.83;25.57;;;14.20;99.90;;;;;;4994359;28;20180;-71
2023/06/09 03:20:20;;;;;;;35.17;24.73;;;14.20;99.90;;;;;;4992526;28;20197;-72
2023/06/09 03:22:47;;;;;;;34.13;25.77;;;14.20;99.90;;;;;;4994063;28;20176;-70
2023/06/09 03:25:13;;;;;;;32.13;24.43;;;14.20;99.90;;;;;;4994100;28;20169;-68
2023/06/09 03:27:38;;;;;;;29.87;23.53;;;14.10;99.90;;;;;;4992384;28;20254;-69
2023/06/09 03:30:05;;;;;;;34.40;23.20;;;14.10;99.90;;;;;;4992364;28;20231;-68
2023/06/09 03:32:31;;;;;;;25.57;22.77;;;14.10;99.90;;;;;;4993508;28;20242;-68
2023/06/09 03:34:57;;;;;;;31.43;22.40;;;14.10;99.90;;;;;;4993708;28;20208;-69
2023/06/09 03:37:22;;;;;;;25.97;23.27;;;14.00;99.90;;;;;;4992885;28;20208;-68
2023/06/09 03:39:48;;;;;;;29.70;23.10;;;14.10;99.90;;;;;;4993733;28;20745;-70
2023/06/09 03:42:14;;;;;;;25.70;21.67;;;14.10;99.90;;;;;;4993954;28;20165;-70
2023/06/09 03:44:39;;;;;;;25.60;22.03;;;14.10;99.90;;;;;;4994134;28;20253;-70
2023/06/09 03:47:06;;;;;;;30.10;23.13;;;14.10;99.90;;;;;;4993799;28;20215;-70
2023/06/09 03:49:31;;;;;;;27.47;22.20;;;14.10;99.90;;;;;;4993640;28;20194;-69
2023/06/09 03:51:57;;;;;;;28.50;22.53;;;14.10;99.90;;;;;;4993518;28;20177;-68
2023/06/09 03:54:23;;;;;;;24.83;22.27;;;14.10;99.90;;;;;;4993446;28;20184;-71
2023/06/09 03:56:48;;;;;;;32.90;22.30;;;14.20;99.90;;;;;;4992875;28;20219;-65
2023/06/09 03:59:14;;;;;;;31.70;23.97;;;14.20;99.90;;;;;;4991217;28;20200;-65
2023/06/09 04:01:40;;;;;;;28.37;23.33;;;14.20;99.90;;;;;;4992081;28;20230;-65
2023/06/09 04:04:06;;;;;;;27.70;22.83;;;14.30;99.90;;;;;;4992288;28;20652;-65
2023/06/09 04:06:31;;;;;;;25.17;22.00;;;14.40;99.90;;;;;;4991714;28;20662;-65
2023/06/09 04:08:57;;;;;;;31.03;23.70;;;14.30;99.90;;;;;;4992131;28;20173;-65
2023/06/09 04:11:23;;;;;;;26.80;23.73;;;14.40;99.90;;;;;;4991724;28;20535;-65
2023/06/09 04:13:49;;;;;;;32.47;25.30;;;14.40;99.90;;;;;;4992148;28;20169;-65
2023/06/09 04:16:16;;;;;;;31.13;25.00;;;14.40;99.90;;;;;;4991909;28;20189;-65
2023/06/09 04:18:41;;;;;;;31.23;25.63;;;14.50;99.90;;;;;;4992081;28;20175;-65
2023/06/09 04:21:08;;;;;;;34.33;27.63;;;14.60;99.90;;;;;;4991555;28;20204;-65
2023/06/09 04:23:34;;;;;;;37.13;27.60;;;14.70;99.90;;;;;;4991986;28;20259;-65
2023/06/09 04:26:00;;;;;;;33.00;26.93;;;14.80;99.90;;;;;;4991571;28;20692;-65
2023/06/09 04:28:27;;;;;;;33.77;26.90;;;14.90;99.90;;;;;;4991912;28;20173;-65
2023/06/09 04:30:53;;;;;;;30.33;26.30;;;15.00;99.90;;;;;;4991509;28;20173;-65
2023/06/09 04:33:19;;;;;;;32.13;27.77;;;15.10;99.90;;;;;;4991755;28;20223;-65
2023/06/09 04:35:46;;;;;;;32.97;27.60;;;15.30;99.90;;;;;;4991855;28;20635;-65
2023/06/09 04:38:12;;;;;;;32.83;27.83;;;15.50;99.90;;;;;;4991852;28;20193;-65
2023/06/09 04:40:39;;;;;;;31.73;27.23;;;15.80;99.90;;;;;;4991232;28;20247;-65
2023/06/09 04:43:07;;;;;;;28.20;25.10;;;16.10;99.90;;;;;;4991631;28;20638;-65
2023/06/09 04:45:35;;;;;;;29.30;25.47;;;16.30;99.90;;;;;;4991635;28;20252;-65
2023/06/09 04:48:01;;;;;;;29.93;23.03;;;16.50;99.90;;;;;;4991815;28;20165;-65
2023/06/09 04:50:33;;;;;;;26.90;23.57;;;16.60;99.90;;;;;;4991335;28;20196;-65
2023/06/09 04:52:59;;;;;;;27.27;23.43;;;16.80;99.90;;;;;;4991632;28;20184;-65
2023/06/09 04:55:26;;;;;;;25.07;22.20;;;16.90;99.90;;;;;;4991475;28;20602;-65
2023/06/09 04:57:56;;;;;;;22.67;20.37;;;17.00;99.90;;;;;;4991824;28;20212;-65
2023/06/09 05:00:23;;;;;;;23.27;20.97;;;17.20;99.90;;;;;;4991184;28;20243;-65
2023/06/09 05:02:51;;;;;;;21.00;18.93;;;17.40;99.90;;;;;;4991641;28;20196;-66
2023/06/09 05:05:16;;;;;;;21.50;19.33;;;17.60;99.90;;;;;;4994389;28;20169;-65
2023/06/09 05:07:42;;;;;;;19.07;17.37;;;17.90;99.90;;;;;;4995302;28;20193;-65
2023/06/09 05:10:08;;;;;;;18.40;16.70;;;18.10;99.90;;;;;;4994991;28;20181;-65
2023/06/09 05:12:35;;;;;;;18.27;15.70;;;18.40;99.90;;;;;;4995139;28;20246;-66
2023/06/09 05:15:01;;;;;;;19.37;15.50;;;18.60;99.90;;;;;;4995141;28;20542;-66
2023/06/09 05:17:27;;;;;;;16.70;14.93;;;18.70;99.90;;;;;;4994923;28;20579;-65
2023/06/09 05:19:53;;;;;;;15.60;14.20;;;18.80;99.90;;;;;;4994663;28;20212;-65
2023/06/09 05:22:18;;;;;;;16.33;14.93;;;18.70;99.90;;;;;;4993859;28;20185;-65
2023/06/09 05:24:44;;;;;;;16.93;15.27;;;18.70;99.90;;;;;;4995199;28;20165;-65
2023/06/09 05:27:10;;;;;;;18.13;16.43;;;18.60;99.90;;;;;;4994771;28;20331;-65
2023/06/09 05:29:37;;;;;;;17.60;15.80;;;18.60;99.90;;;;;;4994675;28;20180;-65
2023/06/09 05:32:02;;;;;;;18.77;16.87;;;18.50;99.90;;;;;;4994783;28;20181;-65
2023/06/09 05:34:29;;;;;;;15.47;13.83;;;18.60;99.90;;;;;;4994765;28;20199;-65
2023/06/09 05:36:55;;;;;;;17.20;15.30;;;18.70;99.90;;;;;;4994617;28;20650;-65
2023/06/09 05:39:21;;;;;;;15.20;13.83;;;19.00;99.90;;;;;;4994250;28;20228;-65
2023/06/09 05:41:46;;;;;;;14.65;13.27;;;19.30;99.90;;;;;;4994820;28;20335;-66
2023/06/09 05:44:12;;;;;;;20.15;18.40;;;19.70;99.90;;;;;;4994374;28;20173;-65
2023/06/09 05:46:38;;;;;;;23.67;21.63;;;20.00;99.90;;;;;;4994465;28;20193;-65
2023/06/09 05:49:04;;;;;;;17.77;16.45;;;20.40;99.90;;;;;;4994609;28;20169;-66
2023/06/09 05:51:32;;;;;;;18.00;16.48;;;20.90;99.90;;;;;;4994092;28;20185;-65
2023/06/09 05:53:57;;;;;;;16.75;15.57;;;21.30;99.90;;;;;;4994636;28;20204;-65
2023/06/09 05:56:23;;;;;;;14.68;13.45;;;21.80;99.90;;;;;;4994416;28;20213;-66
2023/06/09 05:58:50;;;;;;;12.05;11.00;;;22.10;99.90;;;;;;4994474;28;20169;-65
2023/06/09 06:01:16;;;;;;;12.35;11.07;;;22.50;99.90;;;;;;4993986;28;20228;-65
2023/06/09 06:03:41;;;;;;;11.35;10.52;;;22.80;99.90;;;;;;4994502;28;20203;-65
2023/06/09 06:06:08;;;;;;;9.25;8.45;;;23.10;99.90;;;;;;4994134;28;20628;-65
2023/06/09 06:08:34;;;;;;;9.70;8.90;;;23.20;99.90;;;;;;4992938;28;20173;-65
2023/06/09 06:11:00;;;;;;;9.98;9.05;;;23.30;99.90;;;;;;4993105;28;20187;-65
2023/06/09 06:13:26;;;;;;;8.68;7.97;;;23.60;99.90;;;;;;4993350;28;20240;-66
2023/06/09 06:15:51;;;;;;;10.60;9.73;;;23.70;99.90;;;;;;4992771;28;20216;-65
2023/06/09 06:18:17;;;;;;;9.88;9.15;;;23.90;99.90;;;;;;4993556;28;20219;-65
2023/06/09 06:20:42;;;;;;;12.02;9.05;;;24.00;99.90;;;;;;4993350;28;20212;-65
2023/06/09 06:23:08;;;;;;;9.00;8.20;;;24.10;99.90;;;;;;4991253;28;20176;-65
2023/06/09 06:25:36;;;;;;;8.75;8.05;;;24.20;99.90;;;;;;4993396;28;20199;-66
2023/06/09 06:28:02;;;;;;;9.45;8.55;;;24.40;99.90;;;;;;4993802;28;20235;-65
2023/06/09 06:30:29;;;;;;;10.13;9.32;;;24.60;99.90;;;;;;4993209;28;20558;-65
2023/06/09 06:32:55;;;;;;;10.40;9.50;;;24.90;99.90;;;;;;4993836;28;20181;-65
2023/06/09 06:35:28;;;;;;;8.52;7.78;;;25.30;99.90;;;;;;4993343;28;20184;-66
2023/06/09 06:37:55;;;;;;;8.95;8.10;;;25.40;99.90;;;;;;4993922;28;20179;-65
2023/06/09 06:40:21;;;;;;;8.90;8.10;;;25.60;99.90;;;;;;4992899;28;20286;-66
2023/06/09 06:42:47;;;;;;;9.00;8.10;;;25.70;99.90;;;;;;4993543;28;20531;-65
2023/06/09 06:45:13;;;;;;;9.10;8.32;;;25.80;99.90;;;;;;4993589;28;20265;-65
2023/06/09 06:47:41;;;;;;;9.05;8.23;;;25.90;99.90;;;;;;4993238;28;20232;-66
2023/06/09 06:50:08;;;;;;;9.00;8.23;;;26.10;99.90;;;;;;4993376;28;20165;-65
2023/06/09 06:52:34;;;;;;;9.25;7.43;;;26.40;99.90;;;;;;4993206;28;20645;-65
2023/06/09 06:54:59;;;;;;;8.07;7.28;;;26.80;99.90;;;;;;4993097;28;20251;-65
2023/06/09 06:57:25;;;;;;;9.35;8.43;;;26.80;99.90;;;;;;4992674;28;20200;-66
2023/06/09 06:59:51;;;;;;;8.70;7.95;;;26.90;99.90;;;;;;4992630;28;20208;-65
2023/06/09 07:02:17;;;;;;;8.63;7.90;;;27.10;99.90;;;;;;4993097;28;20177;-65
2023/06/09 07:04:43;;;;;;;8.48;7.72;;;27.30;99.90;;;;;;4993537;28;20252;-66
2023/06/09 07:07:09;;;;;;;9.60;7.15;;;27.40;99.90;;;;;;4973385;28;20193;-66
2023/06/09 07:09:36;;;;;;;8.32;7.63;;;27.50;99.90;;;;;;4972626;28;20185;-65
2023/06/09 07:12:02;;;;;;;8.70;7.80;;;27.60;99.90;;;;;;4993513;28;20181;-66
2023/06/09 07:14:29;;;;;;;9.77;8.88;;;27.80;99.90;;;;;;4994003;28;20212;-66
2023/06/09 07:16:55;;;;;;;8.50;7.57;;;27.90;99.90;;;;;;4991620;28;20209;-65
2023/06/09 07:19:21;;;;;;;9.05;8.25;;;27.80;99.90;;;;;;4991573;28;20200;-66
2023/06/09 07:21:48;;;;;;;9.35;8.55;;;28.00;99.90;;;;;;4992416;28;20255;-65
2023/06/09 07:24:13;;;;;;;10.18;9.38;;;28.20;99.90;;;;;;4993335;28;20631;-66
2023/06/09 07:29:07;;;;;;;10.63;9.82;;;28.60;99.90;;;;;;4971462;28;20271;-63
2023/06/09 07:31:32;;;;;;;11.05;10.05;;;28.60;99.90;;;;;;4972984;28;20185;-64
2023/06/09 07:33:58;;;;;;;10.43;9.73;;;28.70;99.90;;;;;;4973164;28;20178;-63
2023/06/09 07:36:24;;;;;;;13.55;12.60;;;28.70;99.90;;;;;;4974254;28;20600;-63
2023/06/09 07:38:50;;;;;;;11.88;11.05;;;28.80;99.90;;;;;;4975251;28;20190;-63
2023/06/09 07:41:16;;;;;;;8.90;8.20;;;28.90;99.90;;;;;;4972645;28;20525;-63
2023/06/09 07:43:43;;;;;;;9.13;8.40;;;29.10;99.90;;;;;;4973213;28;20650;-63
2023/06/09 07:46:10;;;;;;;8.10;7.30;;;29.00;99.90;;;;;;4974019;28;20213;-64
2023/06/09 07:48:38;;;;;;;8.75;7.90;;;29.00;99.90;;;;;;4980744;28;20213;-63
2023/06/09 07:51:04;;;;;;;11.25;7.63;;;29.30;99.90;;;;;;4991266;28;20180;-63
2023/06/09 07:53:30;;;;;;;7.32;6.75;;;29.90;99.90;;;;;;4990395;28;20173;-64
2023/06/09 07:55:56;;;;;;;6.75;6.18;;;30.20;99.90;;;;;;4991983;28;20206;-64
2023/06/09 07:58:22;;;;;;;7.00;6.40;;;30.10;99.90;;;;;;4991728;28;20208;-63
2023/06/09 08:00:48;;;;;;;6.75;6.25;;;29.60;99.90;;;;;;4990293;28;20662;-64
2023/06/09 08:03:13;;;;;;;7.68;7.07;;;29.50;99.90;;;;;;4991669;28;20231;-64
2023/06/09 08:05:39;;;;;;;6.43;6.03;;;29.30;99.90;;;;;;4991803;28;20184;-64
2023/06/09 08:08:05;;;;;;;7.18;6.47;;;29.30;99.90;;;;;;4985414;28;20199;-63
2023/06/09 08:10:31;;;;;;;7.25;6.60;;;29.20;99.90;;;;;;4991237;28;20184;-64
2023/06/09 08:12:56;;;;;;;7.57;6.88;;;29.20;99.90;;;;;;4973124;28;20184;-64
2023/06/09 08:15:22;;;;;;;8.02;7.43;;;29.60;99.90;;;;;;4972490;28;20243;-64
2023/06/09 08:17:48;;;;;;;7.10;6.50;;;30.00;99.90;;;;;;4972803;28;20198;-64
2023/06/09 08:20:13;;;;;;;10.80;10.10;;;30.40;99.90;;;;;;4972407;28;20224;-64
2023/06/09 08:22:39;;;;;;;13.10;12.20;;;30.80;99.90;;;;;;4972553;28;20607;-64
2023/06/09 08:25:05;;;;;;;11.40;10.50;;;30.90;99.90;;;;;;4972534;28;20261;-64
2023/06/09 08:27:30;;;;;;;13.85;12.80;;;31.20;99.90;;;;;;4972067;28;20213;-66
2023/06/09 08:29:56;;;;;;;10.02;9.32;;;31.20;99.90;;;;;;4971871;28;20705;-66
2023/06/09 08:32:21;;;;;;;7.22;6.63;;;31.40;99.90;;;;;;4972264;28;20196;-64
2023/06/09 08:34:47;;;;;;;8.07;7.40;;;31.40;99.90;;;;;;4972639;28;20259;-64
2023/06/09 08:37:15;;;;;;;7.43;6.82;;;31.60;99.90;;;;;;4972248;28;20197;-64
2023/06/09 08:39:40;;;;;;;8.23;7.57;;;31.40;99.90;;;;;;4976126;28;20578;-64
2023/06/09 08:42:20;;;;;;;7.57;6.93;;;31.30;99.90;;;;;;4985177;28;20176;-65
2023/06/09 08:44:49;;;;;;;7.32;6.63;;;31.10;99.90;;;;;;4995991;28;20172;-63
2023/06/09 08:47:19;;;;;;;7.72;7.03;;;31.10;99.90;;;;;;4995416;28;20192;-64
2023/06/09 08:49:45;;;;;;;7.03;6.10;;;31.10;99.90;;;;;;4995540;28;20181;-64
2023/06/09 08:52:11;;;;;;;6.68;6.00;;;31.10;99.90;;;;;;4995694;28;20219;-64
2023/06/09 08:54:37;;;;;;;5.80;5.30;;;31.30;99.90;;;;;;4995801;28;20204;-64
2023/06/09 08:57:03;;;;;;;6.10;5.60;;;31.20;99.90;;;;;;4995484;28;20189;-64
2023/06/09 08:59:33;;;;;;;6.53;5.97;;;31.10;99.90;;;;;;4994914;28;20542;-64
2023/06/09 09:02:01;;;;;;;7.00;6.50;;;31.10;99.90;;;;;;4995281;28;20187;-64
2023/06/09 09:04:27;;;;;;;6.90;6.20;;;31.00;99.90;;;;;;4995390;28;20647;-65
2023/06/09 09:06:55;;;;;;;6.50;5.90;;;31.10;99.90;;;;;;4995367;28;20193;-64
2023/06/09 09:09:20;;;;;;;6.32;5.80;;;31.20;99.90;;;;;;4994807;28;20212;-64
2023/06/09 09:11:49;;;;;;;6.03;5.50;;;31.10;99.90;;;;;;4995656;28;20240;-64
2023/06/09 09:14:15;;;;;;;6.32;5.72;;;31.00;99.90;;;;;;4995348;28;20681;-64
2023/06/09 09:16:40;;;;;;;6.95;5.88;;;31.30;99.90;;;;;;4995368;28;20189;-64
2023/06/09 09:19:06;;;;;;;6.60;5.93;;;31.40;99.90;;;;;;4995010;28;20169;-63
2023/06/09 09:21:37;;;;;;;6.45;5.90;;;31.40;99.90;;;;;;4980033;28;20186;-64
2023/06/09 09:24:11;;;;;;;8.38;5.13;;;31.40;99.90;;;;;;4975737;28;20174;-64
2023/06/09 09:26:38;;;;;;;5.88;5.38;;;31.70;99.90;;;;;;4982193;28;20203;-64
2023/06/09 09:29:06;;;;;;;6.60;6.00;;;31.90;99.90;;;;;;4994962;28;20224;-65
2023/06/09 09:31:39;;;;;;;5.85;5.28;;;32.00;99.90;;;;;;4994733;28;20746;-64
2023/06/09 09:34:09;;;;;;;5.75;5.30;;;32.10;99.90;;;;;;4992751;28;20192;-64
2023/06/09 09:36:44;;;;;;;5.97;5.47;;;32.10;99.90;;;;;;4985421;28;20634;-63
2023/06/09 09:39:10;;;;;;;5.45;4.95;;;32.40;99.90;;;;;;4994383;28;20194;-63
2023/06/09 09:41:35;;;;;;;6.10;5.35;;;32.80;99.90;;;;;;4994265;28;20227;-64
2023/06/09 09:44:01;;;;;;;7.15;5.85;;;33.00;99.90;;;;;;4994853;28;20173;-65
2023/06/09 09:46:26;;;;;;;10.63;5.60;;;32.90;99.90;;;;;;4994680;28;20183;-63
2023/06/09 09:48:54;;;;;;;5.60;5.20;;;32.70;99.90;;;;;;4994302;28;20592;-66
2023/06/09 09:51:20;;;;;;;6.00;5.57;;;32.90;99.90;;;;;;4993506;28;20191;-63
2023/06/09 09:53:46;;;;;;;7.53;4.75;;;33.10;99.90;;;;;;4994186;28;20211;-65
2023/06/09 09:56:14;;;;;;;6.30;5.75;;;32.90;99.90;;;;;;4994695;28;20587;-65
2023/06/09 09:58:43;;;;;;;5.68;5.18;;;32.80;99.90;;;;;;4994626;28;20312;-65
2023/06/09 10:01:11;;;;;;;5.18;4.75;;;32.30;99.90;;;;;;4994131;28;20207;-65
2023/06/09 10:03:38;;;;;;;5.78;5.32;;;31.90;99.90;;;;;;4994320;28;20201;-65
2023/06/09 10:06:09;;;;;;;6.70;6.20;;;31.80;99.90;;;;;;4994492;28;20173;-65
2023/06/09 10:08:35;;;;;;;5.75;5.35;;;31.70;99.90;;;;;;4994196;28;20196;-65
2023/06/09 10:11:02;;;;;;;5.70;5.30;;;31.70;99.90;;;;;;4994130;28;20211;-65
2023/06/09 10:13:28;;;;;;;5.22;4.90;;;31.90;99.90;;;;;;4994044;28;20319;-65
2023/06/09 10:15:55;;;;;;;5.55;5.05;;;32.30;99.90;;;;;;4994346;28;20176;-65
2023/06/09 10:18:22;;;;;;;6.10;5.47;;;32.60;99.90;;;;;;4994023;28;20239;-65
2023/06/09 10:20:48;;;;;;;4.60;4.30;;;32.70;99.90;;;;;;4983515;28;20220;-65
2023/06/09 10:23:15;;;;;;;5.65;5.25;;;32.90;99.90;;;;;;4974323;28;20174;-65
2023/06/09 10:25:41;;;;;;;5.25;4.82;;;32.90;99.90;;;;;;4970788;28;20586;-65
2023/06/09 10:28:07;;;;;;;6.50;5.75;;;32.60;99.90;;;;;;4955120;29;20216;-65
2023/06/09 10:30:33;;;;;;;6.32;5.20;;;32.50;99.90;;;;;;4954873;29;20225;-63
2023/06/09 10:33:08;;;;;;;5.47;4.97;;;32.50;99.90;;;;;;4955019;29;20206;-65
2023/06/09 10:35:36;;;;;;;6.88;6.38;;;32.70;99.90;;;;;;4955067;29;20184;-66
2023/06/09 10:38:21;;;;;;;5.35;4.88;;;33.20;99.90;;;;;;4955062;29;20211;-65
2023/06/09 10:40:52;;;;;;;6.13;5.50;;;33.20;99.90;;;;;;4972933;28;20292;-65
2023/06/09 10:43:39;;;;;;;5.80;5.30;;;33.20;99.90;;;;;;4974077;28;20177;-65
2023/06/09 10:46:04;;;;;;;6.47;4.95;;;33.20;99.90;;;;;;4974396;28;20252;-65
2023/06/09 10:48:50;;;;;;;6.00;5.60;;;33.20;99.90;;;;;;4974064;28;20659;-65
2023/06/09 10:51:27;;;;;;;6.25;5.55;;;33.30;99.90;;;;;;4982157;28;20189;-66
2023/06/09 10:54:12;;;;;;;5.68;5.28;;;33.50;99.90;;;;;;4985983;28;20565;-66
2023/06/09 10:57:03;;;;;;;5.10;4.70;;;33.20;99.90;;;;;;4973897;28;20178;-63
2023/06/09 10:59:30;;;;;;;5.30;4.80;;;33.30;99.90;;;;;;4973390;28;20288;-64
2023/06/09 11:02:05;;;;;;;5.13;4.68;;;33.10;99.90;;;;;;4973868;28;20173;-64
2023/06/09 11:04:45;;;;;;;4.82;4.53;;;33.20;99.90;;;;;;4973880;28;20173;-64
2023/06/09 11:07:15;;;;;;;6.13;5.68;;;33.40;99.90;;;;;;4973835;28;20193;-63
2023/06/09 11:10:00;;;;;;;6.13;5.63;;;33.60;99.90;;;;;;4988551;28;20212;-64
2023/06/09 11:12:49;;;;;;;5.20;4.70;;;33.30;99.80;;;;;;4992963;28;20199;-64
2023/06/09 11:15:16;;;;;;;5.38;4.47;;;33.40;99.90;;;;;;4993330;28;20177;-65
2023/06/09 11:17:52;;;;;;;7.13;5.53;;;33.40;98.60;;;;;;4992981;28;20541;-64
2023/06/09 11:20:23;;;;;;;4.82;4.43;;;33.60;99.90;;;;;;4987156;28;20215;-64
2023/06/09 11:22:48;;;;;;;5.35;4.75;;;33.90;99.90;;;;;;4991574;28;20184;-63
2023/06/09 11:25:17;;;;;;;5.32;4.93;;;34.20;99.90;;;;;;4993033;28;20173;-64
2023/06/09 11:27:44;;;;;;;7.75;7.22;;;34.40;99.90;;;;;;4992173;28;20212;-64
2023/06/09 11:30:18;;;;;;;6.80;6.10;;;34.50;99.90;;;;;;4992713;28;20200;-64
2023/06/09 11:32:47;;;;;;;10.38;9.75;;;34.60;98.90;;;;;;4992721;28;20669;-64
2023/06/09 11:35:28;;;;;;;6.63;6.13;;;34.50;99.00;;;;;;4992815;28;20688;-63
2023/06/09 11:37:58;;;;;;;12.23;11.52;;;34.90;99.20;;;;;;4992261;28;20196;-64
2023/06/09 11:40:35;;;;;;;5.90;5.50;;;34.90;99.80;;;;;;4991715;28;20201;-64
2023/06/09 11:43:02;;;;;;;4.95;4.53;;;35.20;99.90;;;;;;4992643;28;20175;-64
2023/06/09 11:45:30;;;;;;;6.38;5.97;;;35.40;97.00;;;;;;4992237;28;20263;-65
2023/06/09 11:47:57;;;;;;;10.95;10.30;;;34.90;97.70;;;;;;4992497;28;20240;-64
2023/06/09 11:50:43;;;;;;;6.35;5.95;;;34.40;97.70;;;;;;4990952;28;20184;-64
2023/06/09 11:53:16;;;;;;;6.68;6.15;;;34.30;99.90;;;;;;4972844;28;20610;-64
2023/06/09 11:55:42;;;;;;;7.43;6.85;;;34.30;97.90;;;;;;4973068;28;20181;-64
2023/06/09 11:58:09;;;;;;;6.22;5.82;;;34.00;98.10;;;;;;4973095;28;20618;-65
2023/06/09 12:00:40;;;;;;;6.63;6.13;;;34.40;99.40;;;;;;4972361;28;20240;-65
2023/06/09 12:03:06;;;;;;;8.93;8.30;;;34.50;95.60;;;;;;4972986;28;20228;-64
2023/06/09 12:05:32;;;;;;;6.45;6.05;;;34.40;95.90;;;;;;4972802;28;20177;-64
2023/06/09 12:07:58;;;;;;;9.15;8.50;;;34.20;94.50;;;;;;4971544;28;20201;-65
2023/06/09 12:10:26;;;;;;;6.72;6.25;;;34.40;95.80;;;;;;4972505;28;20177;-63
2023/06/09 12:13:02;;;;;;;12.05;11.35;;;34.50;95.30;;;;;;4972416;28;20174;-64
2023/06/09 12:15:28;;;;;;;10.07;9.40;;;34.80;98.00;;;;;;4972640;28;20205;-64
2023/06/09 12:17:57;;;;;;;8.23;7.63;;;35.20;99.90;;;;;;4972713;28;20328;-65
2023/06/09 12:20:29;;;;;;;5.75;5.35;;;35.40;97.60;;;;;;4973233;28;20312;-64
2023/06/09 12:22:58;;;;;;;7.07;6.57;;;35.20;95.50;;;;;;4992097;28;20643;-64
2023/06/09 12:25:26;;;;;;;5.55;4.40;;;35.20;94.50;;;;;;4991688;28;20179;-64
2023/06/09 12:27:53;;;;;;;4.43;4.13;;;35.30;95.40;;;;;;4988860;28;20596;-64
2023/06/09 12:30:45;;;;;;;4.97;4.47;;;34.90;92.60;;;;;;4972236;28;20177;-64
2023/06/09 12:33:12;;;;;;;6.63;6.22;;;35.00;93.10;;;;;;4972557;28;20185;-67
2023/06/09 12:35:42;;;;;;;7.00;6.40;;;34.90;92.60;;;;;;4972197;28;20213;-64
2023/06/09 12:38:15;;;;;;;5.22;4.93;;;34.80;93.60;;;;;;4972082;28;20681;-64
2023/06/09 12:40:46;;;;;;;4.80;4.50;;;35.00;92.90;;;;;;4972199;28;20213;-64
2023/06/09 12:43:12;;;;;;;4.50;4.20;;;35.30;93.90;;;;;;4972437;28;20177;-64